createdAt,value
2017-08-07T00:00:18.320Z,1018.47
2017-08-07T00:01:27.270Z,1018.42
2017-08-07T00:02:36.226Z,1018.45
2017-08-07T00:03:45.507Z,1018.49
2017-08-07T00:04:54.464Z,1018.45
2017-08-07T00:06:03.424Z,1018.44
2017-08-07T00:07:12.705Z,1018.44
2017-08-07T00:08:21.661Z,1018.47
2017-08-07T00:09:30.619Z,1018.45
2017-08-07T00:10:39.571Z,1018.43
2017-08-07T00:11:48.530Z,1018.42
2017-08-07T00:12:57.483Z,1018.4
2017-08-07T00:14:06.443Z,1018.42
2017-08-07T00:15:15.409Z,1018.44
2017-08-07T00:16:24.363Z,1018.47
2017-08-07T00:17:33.323Z,1018.46
2017-08-07T00:18:42.285Z,1018.49
2017-08-07T00:19:51.240Z,1018.5
2017-08-07T00:21:00.214Z,1018.52
2017-08-07T00:22:09.173Z,1018.58
2017-08-07T00:23:18.132Z,1018.54
2017-08-07T00:24:27.083Z,1018.53
2017-08-07T00:25:36.043Z,1018.54
2017-08-07T00:26:44.994Z,1018.55
2017-08-07T00:27:53.948Z,1018.57
2017-08-07T00:29:02.913Z,1018.58
2017-08-07T00:30:11.874Z,1018.58
2017-08-07T00:31:20.834Z,1018.55
2017-08-07T00:32:29.792Z,1018.58
2017-08-07T00:33:38.754Z,1018.55
2017-08-07T00:34:47.713Z,1018.54
2017-08-07T00:35:56.665Z,1018.61
2017-08-07T00:37:05.622Z,1018.61
2017-08-07T00:38:14.611Z,1018.63
2017-08-07T00:39:23.567Z,1018.61
2017-08-07T00:40:32.519Z,1018.62
2017-08-07T00:41:41.473Z,1018.64
2017-08-07T00:42:50.429Z,1018.63
2017-08-07T00:43:59.393Z,1018.6
2017-08-07T00:45:08.340Z,1018.56
2017-08-07T00:46:17.297Z,1018.58
2017-08-07T00:47:26.255Z,1018.56
2017-08-07T00:48:35.219Z,1018.54
2017-08-07T00:49:44.186Z,1018.53
2017-08-07T00:50:53.153Z,1018.53
2017-08-07T00:52:02.111Z,1018.54
2017-08-07T00:53:11.067Z,1018.56
2017-08-07T00:54:20.026Z,1018.52
2017-08-07T00:55:28.978Z,1018.56
2017-08-07T00:56:37.933Z,1018.55
2017-08-07T00:57:46.916Z,1018.53
2017-08-07T00:58:55.874Z,1018.52
2017-08-07T01:00:04.830Z,1018.49
2017-08-07T01:01:13.787Z,1018.48
2017-08-07T01:02:22.749Z,1018.45
2017-08-07T01:03:31.711Z,1018.5
2017-08-07T01:04:41.016Z,1018.49
2017-08-07T01:05:49.971Z,1018.53
2017-08-07T01:06:58.926Z,1018.51
2017-08-07T01:08:07.892Z,1018.55
2017-08-07T01:09:16.864Z,1018.57
2017-08-07T01:10:25.814Z,1018.55
2017-08-07T01:11:34.769Z,1018.58
2017-08-07T01:12:43.722Z,1018.55
2017-08-07T01:13:52.672Z,1018.55
2017-08-07T01:15:01.631Z,1018.49
2017-08-07T01:16:10.590Z,1018.49
2017-08-07T01:17:19.558Z,1018.47
2017-08-07T01:18:28.836Z,1018.48
2017-08-07T01:19:37.786Z,1018.48
2017-08-07T01:20:46.746Z,1018.44
2017-08-07T01:21:55.705Z,1018.45
2017-08-07T01:23:04.668Z,1018.43
2017-08-07T01:24:13.624Z,1018.42
2017-08-07T01:25:22.573Z,1018.41
2017-08-07T01:26:31.541Z,1018.39
2017-08-07T01:27:40.487Z,1018.36
2017-08-07T01:28:49.452Z,1018.4
2017-08-07T01:29:58.411Z,1018.37
2017-08-07T01:31:07.355Z,1018.37
2017-08-07T01:32:16.313Z,1018.36
2017-08-07T01:33:25.275Z,1018.39
2017-08-07T01:34:34.241Z,1018.35
2017-08-07T01:35:43.203Z,1018.37
2017-08-07T01:36:52.166Z,1018.42
2017-08-07T01:38:01.118Z,1018.4
2017-08-07T01:39:10.075Z,1018.42
2017-08-07T01:40:19.049Z,1018.43
2017-08-07T01:41:28.002Z,1018.44
2017-08-07T01:42:36.963Z,1018.43
2017-08-07T01:43:45.929Z,1018.44
2017-08-07T01:44:54.897Z,1018.4
2017-08-07T01:46:03.847Z,1018.44
2017-08-07T01:47:12.806Z,1018.43
2017-08-07T01:48:22.096Z,1018.47
2017-08-07T01:49:31.055Z,1018.43
2017-08-07T01:50:40.015Z,1018.47
2017-08-07T01:51:48.975Z,1018.45
2017-08-07T01:52:57.927Z,1018.43
2017-08-07T01:54:06.879Z,1018.47
2017-08-07T01:55:15.833Z,1018.41
2017-08-07T01:56:24.798Z,1018.41
2017-08-07T01:57:33.757Z,1018.38
2017-08-07T01:58:42.711Z,1018.37
2017-08-07T01:59:51.770Z,1018.39
2017-08-07T02:01:00.725Z,1018.37
2017-08-07T02:02:09.675Z,1018.44
2017-08-07T02:03:18.634Z,1018.41
2017-08-07T02:04:27.593Z,1018.46
2017-08-07T02:05:36.552Z,1018.43
2017-08-07T02:06:45.509Z,1018.43
2017-08-07T02:07:54.470Z,1018.42
2017-08-07T02:09:03.421Z,1018.41
2017-08-07T02:10:12.389Z,1018.44
2017-08-07T02:11:21.341Z,1018.4
2017-08-07T02:12:30.304Z,1018.41
2017-08-07T02:13:39.267Z,1018.37
2017-08-07T02:14:48.227Z,1018.37
2017-08-07T02:15:57.185Z,1018.4
2017-08-07T02:17:06.148Z,1018.36
2017-08-07T02:18:15.429Z,1018.4
2017-08-07T02:19:24.392Z,1018.37
2017-08-07T02:20:33.342Z,1018.4
2017-08-07T02:21:42.297Z,1018.38
2017-08-07T02:22:51.253Z,1018.44
2017-08-07T02:24:00.213Z,1018.51
2017-08-07T02:25:09.171Z,1018.48
2017-08-07T02:26:18.457Z,1018.45
2017-08-07T02:27:27.413Z,1018.47
2017-08-07T02:28:36.370Z,1018.46
2017-08-07T02:29:45.330Z,1018.47
2017-08-07T02:30:54.301Z,1018.45
2017-08-07T02:32:03.256Z,1018.41
2017-08-07T02:33:12.343Z,1018.43
2017-08-07T02:34:21.300Z,1018.38
2017-08-07T02:35:30.276Z,1018.39
2017-08-07T02:36:39.876Z,1018.41
2017-08-07T02:37:48.846Z,1018.36
2017-08-07T02:38:57.813Z,1018.43
2017-08-07T02:40:07.098Z,1018.42
2017-08-07T02:41:16.069Z,1018.42
2017-08-07T02:42:25.029Z,1018.41
2017-08-07T02:43:33.991Z,1018.4
2017-08-07T02:44:43.270Z,1018.4
2017-08-07T02:45:52.244Z,1018.4
2017-08-07T02:47:01.200Z,1018.42
2017-08-07T02:48:10.483Z,1018.4
2017-08-07T02:49:19.440Z,1018.4
2017-08-07T02:50:28.401Z,1018.38
2017-08-07T02:51:37.362Z,1018.39
2017-08-07T02:52:46.336Z,1018.42
2017-08-07T02:53:55.310Z,1018.39
2017-08-07T02:55:04.260Z,1018.42
2017-08-07T02:56:13.213Z,1018.41
2017-08-07T02:57:22.190Z,1018.41
2017-08-07T02:58:31.150Z,1018.39
2017-08-07T02:59:40.108Z,1018.4
2017-08-07T03:00:49.071Z,1018.41
2017-08-07T03:01:58.043Z,1018.4
2017-08-07T03:03:07.009Z,1018.42
2017-08-07T03:04:15.964Z,1018.4
2017-08-07T03:05:24.921Z,1018.4
2017-08-07T03:06:34.195Z,1018.4
2017-08-07T03:07:43.159Z,1018.39
2017-08-07T03:08:52.112Z,1018.43
2017-08-07T03:10:01.063Z,1018.41
2017-08-07T03:11:10.029Z,1018.4
2017-08-07T03:12:19.287Z,1018.42
2017-08-07T03:13:28.242Z,1018.41
2017-08-07T03:14:37.198Z,1018.43
2017-08-07T03:15:46.158Z,1018.41
2017-08-07T03:16:55.110Z,1018.37
2017-08-07T03:18:04.072Z,1018.4
2017-08-07T03:19:13.035Z,1018.4
2017-08-07T03:20:21.998Z,1018.41
2017-08-07T03:21:30.951Z,1018.38
2017-08-07T03:22:40.232Z,1018.39
2017-08-07T03:23:49.186Z,1018.4
2017-08-07T03:24:58.463Z,1018.34
2017-08-07T03:26:07.430Z,1018.34
2017-08-07T03:27:16.393Z,1018.33
2017-08-07T03:28:25.357Z,1018.3
2017-08-07T03:29:34.310Z,1018.28
2017-08-07T03:30:43.585Z,1018.28
2017-08-07T03:31:52.560Z,1018.26
2017-08-07T03:33:01.510Z,1018.25
2017-08-07T03:34:10.467Z,1018.25
2017-08-07T03:35:19.745Z,1018.27
2017-08-07T03:36:28.699Z,1018.27
2017-08-07T03:37:37.662Z,1018.26
2017-08-07T03:38:46.617Z,1018.33
2017-08-07T03:39:55.570Z,1018.32
2017-08-07T03:41:04.526Z,1018.29
2017-08-07T03:42:13.486Z,1018.29
2017-08-07T03:43:22.445Z,1018.29
2017-08-07T03:44:31.404Z,1018.3
2017-08-07T03:45:40.361Z,1018.3
2017-08-07T03:46:49.326Z,1018.31
2017-08-07T03:47:58.289Z,1018.32
2017-08-07T03:49:07.251Z,1018.35
2017-08-07T03:50:16.210Z,1018.38
2017-08-07T03:51:25.165Z,1018.32
2017-08-07T03:52:34.149Z,1018.36
2017-08-07T03:53:43.100Z,1018.34
2017-08-07T03:54:52.047Z,1018.35
2017-08-07T03:56:01.009Z,1018.32
2017-08-07T03:57:09.972Z,1018.38
2017-08-07T03:58:19.259Z,1018.39
2017-08-07T03:59:28.225Z,1018.36
2017-08-07T04:00:37.189Z,1018.35
2017-08-07T04:01:46.150Z,1018.35
2017-08-07T04:02:55.109Z,1018.37
2017-08-07T04:04:04.086Z,1018.35
2017-08-07T04:05:13.044Z,1018.37
2017-08-07T04:06:21.998Z,1018.37
2017-08-07T04:07:30.959Z,1018.34
2017-08-07T04:08:39.914Z,1018.36
2017-08-07T04:09:49.202Z,1018.38
2017-08-07T04:10:58.184Z,1018.38
2017-08-07T04:12:07.143Z,1018.36
2017-08-07T04:13:16.094Z,1018.36
2017-08-07T04:14:25.051Z,1018.36
2017-08-07T04:15:34.013Z,1018.36
2017-08-07T04:16:42.968Z,1018.39
2017-08-07T04:17:51.930Z,1018.36
2017-08-07T04:19:00.884Z,1018.37
2017-08-07T04:20:09.839Z,1018.36
2017-08-07T04:21:18.784Z,1018.4
2017-08-07T04:22:27.745Z,1018.36
2017-08-07T04:23:36.700Z,1018.36
2017-08-07T04:24:45.652Z,1018.37
2017-08-07T04:25:54.607Z,1018.39
2017-08-07T04:27:03.561Z,1018.38
2017-08-07T04:28:12.522Z,1018.39
2017-08-07T04:29:21.492Z,1018.43
2017-08-07T04:30:30.456Z,1018.41
2017-08-07T04:31:39.416Z,1018.38
2017-08-07T04:32:48.368Z,1018.4
2017-08-07T04:33:57.337Z,1018.39
2017-08-07T04:35:06.300Z,1018.41
2017-08-07T04:36:15.256Z,1018.43
2017-08-07T04:37:24.217Z,1018.43
2017-08-07T04:38:33.505Z,1018.42
2017-08-07T04:39:42.464Z,1018.43
2017-08-07T04:40:52.069Z,1018.47
2017-08-07T04:42:01.031Z,1018.41
2017-08-07T04:43:09.989Z,1018.43
2017-08-07T04:44:18.943Z,1018.41
2017-08-07T04:45:27.906Z,1018.38
2017-08-07T04:46:36.865Z,1018.39
2017-08-07T04:47:45.822Z,1018.38
2017-08-07T04:48:54.779Z,1018.38
2017-08-07T04:50:03.741Z,1018.41
2017-08-07T04:51:12.691Z,1018.41
2017-08-07T04:52:21.656Z,1018.42
2017-08-07T04:53:30.937Z,1018.4
2017-08-07T04:54:39.889Z,1018.42
2017-08-07T04:55:48.853Z,1018.38
2017-08-07T04:56:57.807Z,1018.38
2017-08-07T04:58:06.764Z,1018.4
2017-08-07T04:59:15.720Z,1018.39
2017-08-07T05:00:25.011Z,1018.35
2017-08-07T05:01:34.292Z,1018.34
2017-08-07T05:02:43.251Z,1018.34
2017-08-07T05:03:52.202Z,1018.34
2017-08-07T05:05:01.156Z,1018.32
2017-08-07T05:06:10.115Z,1018.29
2017-08-07T05:07:19.071Z,1018.34
2017-08-07T05:08:28.025Z,1018.32
2017-08-07T05:09:37.303Z,1018.34
2017-08-07T05:10:46.253Z,1018.37
2017-08-07T05:11:55.208Z,1018.38
2017-08-07T05:13:04.168Z,1018.36
2017-08-07T05:14:13.123Z,1018.37
2017-08-07T05:15:22.078Z,1018.37
2017-08-07T05:16:31.037Z,1018.35
2017-08-07T05:17:39.996Z,1018.37
2017-08-07T05:18:48.953Z,1018.39
2017-08-07T05:19:57.918Z,1018.4
2017-08-07T05:21:06.870Z,1018.39
2017-08-07T05:22:15.835Z,1018.38
2017-08-07T05:23:24.787Z,1018.43
2017-08-07T05:24:34.079Z,1018.44
2017-08-07T05:25:43.035Z,1018.4
2017-08-07T05:26:52.006Z,1018.41
2017-08-07T05:28:00.960Z,1018.37
2017-08-07T05:29:09.915Z,1018.38
2017-08-07T05:30:18.871Z,1018.43
2017-08-07T05:31:27.823Z,1018.39
2017-08-07T05:32:36.787Z,1018.42
2017-08-07T05:33:45.751Z,1018.39
2017-08-07T05:34:54.717Z,1018.43
2017-08-07T05:36:03.669Z,1018.42
2017-08-07T05:37:12.631Z,1018.4
2017-08-07T05:38:21.595Z,1018.4
2017-08-07T05:39:30.556Z,1018.41
2017-08-07T05:40:39.521Z,1018.41
2017-08-07T05:41:48.478Z,1018.43
2017-08-07T05:42:57.434Z,1018.43
2017-08-07T05:44:06.405Z,1018.44
2017-08-07T05:45:15.370Z,1018.44
2017-08-07T05:46:24.333Z,1018.4
2017-08-07T05:47:33.284Z,1018.4
2017-08-07T05:48:42.237Z,1018.37
2017-08-07T05:49:51.196Z,1018.37
2017-08-07T05:51:00.152Z,1018.38
2017-08-07T05:52:09.109Z,1018.41
2017-08-07T05:53:18.067Z,1018.37
2017-08-07T05:54:27.351Z,1018.37
2017-08-07T05:55:36.306Z,1018.4
2017-08-07T05:56:45.258Z,1018.38
2017-08-07T05:57:54.221Z,1018.39
2017-08-07T05:59:03.177Z,1018.33
2017-08-07T06:00:12.136Z,1018.33
2017-08-07T06:01:21.095Z,1018.41
2017-08-07T06:02:30.053Z,1018.38
2017-08-07T06:03:39.024Z,1018.35
2017-08-07T06:04:47.989Z,1018.37
2017-08-07T06:05:56.948Z,1018.4
2017-08-07T06:07:05.909Z,1018.36
2017-08-07T06:08:14.870Z,1018.35
2017-08-07T06:09:24.144Z,1018.32
2017-08-07T06:10:33.114Z,1018.4
2017-08-07T06:11:42.071Z,1018.39
2017-08-07T06:12:51.021Z,1018.31
2017-08-07T06:13:59.981Z,1018.3
2017-08-07T06:15:08.949Z,1018.3
2017-08-07T06:16:17.898Z,1018.32
2017-08-07T06:17:26.859Z,1018.33
2017-08-07T06:18:35.818Z,1018.33
2017-08-07T06:19:44.769Z,1018.31
2017-08-07T06:20:53.733Z,1018.31
2017-08-07T06:22:02.701Z,1018.35
2017-08-07T06:23:11.660Z,1018.34
2017-08-07T06:24:20.613Z,1018.36
2017-08-07T06:25:29.904Z,1018.33
2017-08-07T06:26:38.868Z,1018.34
2017-08-07T06:27:47.821Z,1018.38
2017-08-07T06:28:56.776Z,1018.37
2017-08-07T06:30:05.767Z,1018.37
2017-08-07T06:31:15.042Z,1018.39
2017-08-07T06:32:23.997Z,1018.39
2017-08-07T06:33:32.965Z,1018.36
2017-08-07T06:34:41.963Z,1018.39
2017-08-07T06:35:50.915Z,1018.42
2017-08-07T06:37:00.189Z,1018.4
2017-08-07T06:38:09.146Z,1018.44
2017-08-07T06:39:18.156Z,1018.39
2017-08-07T06:40:27.111Z,1018.4
2017-08-07T06:41:36.069Z,1018.38
2017-08-07T06:42:45.030Z,1018.38
2017-08-07T06:43:54.005Z,1018.39
2017-08-07T06:45:02.975Z,1018.38
2017-08-07T06:46:11.943Z,1018.42
2017-08-07T06:47:20.901Z,1018.4
2017-08-07T06:48:29.852Z,1018.38
2017-08-07T06:49:38.815Z,1018.36
2017-08-07T06:50:47.801Z,1018.39
2017-08-07T06:51:56.763Z,1018.35
2017-08-07T06:53:05.730Z,1018.33
2017-08-07T06:54:14.696Z,1018.36
2017-08-07T06:55:23.662Z,1018.39
2017-08-07T06:56:32.627Z,1018.37
2017-08-07T06:57:41.581Z,1018.35
2017-08-07T06:58:50.869Z,1018.37
2017-08-07T07:00:00.162Z,1018.4
2017-08-07T07:01:09.125Z,1018.38
2017-08-07T07:02:18.086Z,1018.35
2017-08-07T07:03:27.054Z,1018.39
2017-08-07T07:04:36.006Z,1018.39
2017-08-07T07:05:44.977Z,1018.36
2017-08-07T07:06:54.029Z,1018.35
2017-08-07T07:08:02.989Z,1018.36
2017-08-07T07:09:11.950Z,1018.31
2017-08-07T07:10:20.908Z,1018.35
2017-08-07T07:11:29.857Z,1018.33
2017-08-07T07:12:38.824Z,1018.29
2017-08-07T07:13:47.788Z,1018.31
2017-08-07T07:14:56.763Z,1018.32
2017-08-07T07:16:05.728Z,1018.32
2017-08-07T07:17:14.683Z,1018.3
2017-08-07T07:18:23.649Z,1018.29
2017-08-07T07:19:32.930Z,1018.26
2017-08-07T07:20:41.978Z,1018.31
2017-08-07T07:21:50.939Z,1018.3
2017-08-07T07:22:59.914Z,1018.32
2017-08-07T07:24:08.881Z,1018.28
2017-08-07T07:25:17.844Z,1018.34
2017-08-07T07:26:26.816Z,1018.32
2017-08-07T07:27:35.781Z,1018.27
2017-08-07T07:28:44.747Z,1018.31
2017-08-07T07:29:53.697Z,1018.27
2017-08-07T07:31:02.670Z,1018.31
2017-08-07T07:32:11.951Z,1018.29
2017-08-07T07:33:20.914Z,1018.3
2017-08-07T07:34:29.883Z,1018.33
2017-08-07T07:35:38.846Z,1018.33
2017-08-07T07:36:47.810Z,1018.37
2017-08-07T07:37:56.778Z,1018.34
2017-08-07T07:39:05.736Z,1018.36
2017-08-07T07:40:14.691Z,1018.31
2017-08-07T07:41:23.652Z,1018.36
2017-08-07T07:42:32.940Z,1018.31
2017-08-07T07:43:41.905Z,1018.44
2017-08-07T07:44:50.862Z,1018.55
2017-08-07T07:45:59.816Z,1018.62
2017-08-07T07:47:08.771Z,1018.63
2017-08-07T07:48:17.732Z,1018.65
2017-08-07T07:49:26.697Z,1018.61
2017-08-07T07:50:35.657Z,1018.51
2017-08-07T07:51:44.628Z,1018.46
2017-08-07T07:52:53.585Z,1018.39
2017-08-07T07:54:02.549Z,1018.31
2017-08-07T07:55:11.513Z,1018.28
2017-08-07T07:56:20.796Z,1018.26
2017-08-07T07:57:29.755Z,1018.28
2017-08-07T07:58:38.717Z,1018.25
2017-08-07T07:59:47.677Z,1018.26
2017-08-07T08:00:56.643Z,1018.27
2017-08-07T08:02:05.598Z,1018.27
2017-08-07T08:03:14.556Z,1018.25
2017-08-07T08:04:23.520Z,1018.22
2017-08-07T08:05:32.489Z,1018.25
2017-08-07T08:06:41.449Z,1018.23
2017-08-07T08:07:50.413Z,1018.22
2017-08-07T08:08:59.377Z,1018.25
2017-08-07T08:10:08.660Z,1018.2
2017-08-07T08:11:17.631Z,1018.24
2017-08-07T08:12:26.587Z,1018.2
2017-08-07T08:13:35.542Z,1018.21
2017-08-07T08:14:44.514Z,1018.18
2017-08-07T08:15:53.470Z,1018.19
2017-08-07T08:17:02.436Z,1018.2
2017-08-07T08:18:11.405Z,1018.19
2017-08-07T08:19:20.373Z,1018.15
2017-08-07T08:20:29.331Z,1018.15
2017-08-07T08:21:38.291Z,1018.12
2017-08-07T08:22:47.239Z,1018.11
2017-08-07T08:23:56.198Z,1018.17
2017-08-07T08:25:05.159Z,1018.17
2017-08-07T08:26:14.121Z,1018.14
2017-08-07T08:27:23.094Z,1018.21
2017-08-07T08:28:32.071Z,1018.13
2017-08-07T08:29:41.028Z,1018.17
2017-08-07T08:30:50.332Z,1018.13
2017-08-07T08:31:59.305Z,1018.13
2017-08-07T08:33:08.265Z,1018.11
2017-08-07T08:34:17.220Z,1018.1
2017-08-07T08:35:26.181Z,1018.1
2017-08-07T08:36:35.133Z,1018.08
2017-08-07T08:37:44.086Z,1018.06
2017-08-07T08:38:53.369Z,1018.08
2017-08-07T08:40:02.336Z,1018.03
2017-08-07T08:41:11.614Z,1018.07
2017-08-07T08:42:20.570Z,1018.06
2017-08-07T08:43:29.538Z,1018.05
2017-08-07T08:44:38.518Z,1018.08
2017-08-07T08:45:47.810Z,1018.04
2017-08-07T08:46:56.765Z,1018.05
2017-08-07T08:48:05.728Z,1018.06
2017-08-07T08:49:15.015Z,1018.02
2017-08-07T08:50:23.972Z,1018.07
2017-08-07T08:51:32.930Z,1018.02
2017-08-07T08:52:42.245Z,1018.02
2017-08-07T08:53:51.531Z,1018
2017-08-07T08:55:00.500Z,1017.98
2017-08-07T08:56:09.457Z,1018.02
2017-08-07T08:57:18.426Z,1017.99
2017-08-07T08:58:27.378Z,1018.04
2017-08-07T08:59:36.348Z,1018.02
2017-08-07T09:00:45.636Z,1018.01
2017-08-07T09:01:54.587Z,1017.98
2017-08-07T09:03:03.551Z,1017.91
2017-08-07T09:04:12.842Z,1017.93
2017-08-07T09:05:21.803Z,1017.97
2017-08-07T09:06:30.767Z,1017.93
2017-08-07T09:07:40.054Z,1017.91
2017-08-07T09:08:49.036Z,1017.9
2017-08-07T09:09:58.001Z,1017.89
2017-08-07T09:11:06.957Z,1017.85
2017-08-07T09:12:15.928Z,1017.86
2017-08-07T09:13:24.901Z,1017.82
2017-08-07T09:14:33.872Z,1017.8
2017-08-07T09:15:42.833Z,1017.81
2017-08-07T09:16:51.786Z,1017.86
2017-08-07T09:18:00.752Z,1017.83
2017-08-07T09:19:09.714Z,1017.86
2017-08-07T09:20:18.690Z,1017.85
2017-08-07T09:21:28.016Z,1017.83
2017-08-07T09:22:36.973Z,1017.86
2017-08-07T09:23:45.939Z,1017.83
2017-08-07T09:24:54.903Z,1017.81
2017-08-07T09:26:03.862Z,1017.79
2017-08-07T09:27:12.822Z,1017.81
2017-08-07T09:28:22.114Z,1017.71
2017-08-07T09:29:31.083Z,1017.75
2017-08-07T09:30:40.049Z,1017.76
2017-08-07T09:31:49.014Z,1017.78
2017-08-07T09:32:57.972Z,1017.71
2017-08-07T09:34:06.934Z,1017.66
2017-08-07T09:35:16.220Z,1017.69
2017-08-07T09:36:25.172Z,1017.68
2017-08-07T09:37:34.130Z,1017.67
2017-08-07T09:38:43.089Z,1017.63
2017-08-07T09:39:52.051Z,1017.63
2017-08-07T09:41:01.016Z,1017.63
2017-08-07T09:42:10.318Z,1017.61
2017-08-07T09:43:19.286Z,1017.58
2017-08-07T09:44:28.250Z,1017.56
2017-08-07T09:45:37.217Z,1017.59
2017-08-07T09:46:46.172Z,1017.59
2017-08-07T09:47:55.452Z,1017.6
2017-08-07T09:49:04.408Z,1017.58
2017-08-07T09:50:13.371Z,1017.6
2017-08-07T09:51:22.335Z,1017.65
2017-08-07T09:52:31.299Z,1017.59
2017-08-07T09:53:40.265Z,1017.59
2017-08-07T09:54:49.233Z,1017.57
2017-08-07T09:55:58.194Z,1017.61
2017-08-07T09:57:07.156Z,1017.58
2017-08-07T09:58:16.147Z,1017.63
2017-08-07T09:59:25.111Z,1017.63
2017-08-07T10:00:34.060Z,1017.6
2017-08-07T10:01:43.016Z,1017.56
2017-08-07T10:02:51.981Z,1017.6
2017-08-07T10:04:00.940Z,1017.63
2017-08-07T10:05:09.898Z,1017.63
2017-08-07T10:06:18.864Z,1017.57
2017-08-07T10:07:27.824Z,1017.56
2017-08-07T10:08:36.800Z,1017.57
2017-08-07T10:09:45.760Z,1017.55
2017-08-07T10:10:54.729Z,1017.63
2017-08-07T10:12:03.690Z,1017.6
2017-08-07T10:13:12.649Z,1017.68
2017-08-07T10:14:21.623Z,1017.58
2017-08-07T10:15:30.581Z,1017.62
2017-08-07T10:16:39.543Z,1017.55
2017-08-07T10:17:48.500Z,1017.62
2017-08-07T10:18:57.461Z,1017.58
2017-08-07T10:20:06.417Z,1017.6
2017-08-07T10:21:15.387Z,1017.53
2017-08-07T10:22:24.359Z,1017.55
2017-08-07T10:23:33.320Z,1017.56
2017-08-07T10:24:42.292Z,1017.63
2017-08-07T10:25:51.256Z,1017.56
2017-08-07T10:27:00.214Z,1017.59
2017-08-07T10:28:09.171Z,1017.57
2017-08-07T10:29:18.136Z,1017.57
2017-08-07T10:30:27.095Z,1017.56
2017-08-07T10:31:36.057Z,1017.53
2017-08-07T10:32:45.013Z,1017.53
2017-08-07T10:33:53.965Z,1017.52
2017-08-07T10:35:02.940Z,1017.48
2017-08-07T10:36:12.221Z,1017.49
2017-08-07T10:37:21.187Z,1017.44
2017-08-07T10:38:30.146Z,1017.44
2017-08-07T10:39:39.136Z,1017.46
2017-08-07T10:40:48.103Z,1017.42
2017-08-07T10:41:57.084Z,1017.39
2017-08-07T10:43:06.060Z,1017.38
2017-08-07T10:44:15.031Z,1017.38
2017-08-07T10:45:24.326Z,1017.4
2017-08-07T10:46:33.285Z,1017.38
2017-08-07T10:47:42.248Z,1017.35
2017-08-07T10:48:51.213Z,1017.41
2017-08-07T10:50:00.170Z,1017.34
2017-08-07T10:51:09.129Z,1017.31
2017-08-07T10:52:18.101Z,1017.36
2017-08-07T10:53:27.056Z,1017.37
2017-08-07T10:54:36.018Z,1017.37
2017-08-07T10:55:45.301Z,1017.37
2017-08-07T10:56:54.250Z,1017.36
2017-08-07T10:58:03.541Z,1017.36
2017-08-07T10:59:12.505Z,1017.38
2017-08-07T11:00:21.786Z,1017.36
2017-08-07T11:01:30.740Z,1017.38
2017-08-07T11:02:39.700Z,1017.35
2017-08-07T11:03:48.991Z,1017.35
2017-08-07T11:04:57.952Z,1017.33
2017-08-07T11:06:06.906Z,1017.36
2017-08-07T11:07:15.865Z,1017.36
2017-08-07T11:08:24.828Z,1017.26
2017-08-07T11:09:33.796Z,1017.24
2017-08-07T11:10:42.760Z,1017.27
2017-08-07T11:11:52.041Z,1017.25
2017-08-07T11:13:01.005Z,1017.26
2017-08-07T11:14:09.972Z,1017.26
2017-08-07T11:15:19.025Z,1017.31
2017-08-07T11:16:27.986Z,1017.3
2017-08-07T11:17:36.960Z,1017.24
2017-08-07T11:18:45.921Z,1017.22
2017-08-07T11:19:54.878Z,1017.22
2017-08-07T11:21:03.847Z,1017.18
2017-08-07T11:22:12.802Z,1017.18
2017-08-07T11:23:21.760Z,1017.19
2017-08-07T11:24:31.063Z,1017.18
2017-08-07T11:25:40.028Z,1017.12
2017-08-07T11:26:48.989Z,1017.19
2017-08-07T11:27:57.945Z,1017.23
2017-08-07T11:29:06.918Z,1017.19
2017-08-07T11:30:15.883Z,1017.18
2017-08-07T11:31:24.850Z,1017.19
2017-08-07T11:32:33.815Z,1017.16
2017-08-07T11:33:42.774Z,1017.15
2017-08-07T11:34:51.734Z,1017.1
2017-08-07T11:36:00.706Z,1017.08
2017-08-07T11:37:09.987Z,1017.15
2017-08-07T11:38:18.980Z,1017.05
2017-08-07T11:39:27.946Z,1017.11
2017-08-07T11:40:37.236Z,1017.08
2017-08-07T11:41:46.204Z,1017.09
2017-08-07T11:42:55.172Z,1017.06
2017-08-07T11:44:04.133Z,1017.09
2017-08-07T11:45:13.086Z,1017.06
2017-08-07T11:46:22.049Z,1017.05
2017-08-07T11:47:31.020Z,1017.08
2017-08-07T11:48:39.993Z,1017.03
2017-08-07T11:49:48.954Z,1017.03
2017-08-07T11:50:57.917Z,1016.98
2017-08-07T11:52:06.874Z,1017.02
2017-08-07T11:53:16.155Z,1017.01
2017-08-07T11:54:25.123Z,1016.92
2017-08-07T11:55:34.081Z,1016.92
2017-08-07T11:56:43.053Z,1016.94
2017-08-07T11:57:52.013Z,1016.88
2017-08-07T11:59:00.975Z,1016.99
2017-08-07T12:00:09.958Z,1016.96
2017-08-07T12:01:18.917Z,1016.98
2017-08-07T12:02:27.883Z,1017.02
2017-08-07T12:03:37.190Z,1016.95
2017-08-07T12:04:46.153Z,1016.92
2017-08-07T12:05:55.109Z,1016.89
2017-08-07T12:07:04.074Z,1016.9
2017-08-07T12:08:13.029Z,1016.87
2017-08-07T12:09:21.996Z,1016.84
2017-08-07T12:10:30.958Z,1016.83
2017-08-07T12:11:39.925Z,1016.87
2017-08-07T12:12:48.876Z,1016.81
2017-08-07T12:13:57.833Z,1016.78
2017-08-07T12:15:06.798Z,1016.83
2017-08-07T12:16:15.759Z,1016.83
2017-08-07T12:17:24.722Z,1016.85
2017-08-07T12:18:33.682Z,1016.86
2017-08-07T12:19:42.648Z,1016.87
2017-08-07T12:20:51.615Z,1016.84
2017-08-07T12:22:00.585Z,1016.78
2017-08-07T12:23:09.546Z,1016.8
2017-08-07T12:24:18.508Z,1016.81
2017-08-07T12:25:27.482Z,1016.79
2017-08-07T12:26:36.777Z,1016.73
2017-08-07T12:27:45.741Z,1016.73
2017-08-07T12:28:55.046Z,1016.73
2017-08-07T12:30:04.006Z,1016.75
2017-08-07T12:31:12.973Z,1016.72
2017-08-07T12:32:21.929Z,1016.74
2017-08-07T12:33:30.894Z,1016.72
2017-08-07T12:34:40.604Z,1016.65
2017-08-07T12:35:49.566Z,1016.65
2017-08-07T12:36:58.529Z,1016.64
2017-08-07T12:38:07.495Z,1016.62
2017-08-07T12:39:16.781Z,1016.63
2017-08-07T12:40:25.733Z,1016.66
2017-08-07T12:41:34.688Z,1016.64
2017-08-07T12:42:43.655Z,1016.64
2017-08-07T12:43:52.941Z,1016.61
2017-08-07T12:45:01.897Z,1016.61
2017-08-07T12:46:10.863Z,1016.67
2017-08-07T12:47:19.833Z,1016.63
2017-08-07T12:48:28.802Z,1016.63
2017-08-07T12:49:37.778Z,1016.63
2017-08-07T12:50:46.743Z,1016.58
2017-08-07T12:51:55.700Z,1016.56
2017-08-07T12:53:04.657Z,1016.52
2017-08-07T12:54:13.940Z,1016.49
2017-08-07T12:55:22.906Z,1016.54
2017-08-07T12:56:31.881Z,1016.49
2017-08-07T12:57:40.847Z,1016.51
2017-08-07T12:58:49.821Z,1016.47
2017-08-07T12:59:58.788Z,1016.47
2017-08-07T13:01:07.754Z,1016.48
2017-08-07T13:02:16.718Z,1016.45
2017-08-07T13:03:25.685Z,1016.46
2017-08-07T13:04:34.985Z,1016.42
2017-08-07T13:05:43.966Z,1016.4
2017-08-07T13:06:52.926Z,1016.45
2017-08-07T13:08:01.894Z,1016.45
2017-08-07T13:09:10.875Z,1016.44
2017-08-07T13:10:19.857Z,1016.47
2017-08-07T13:11:28.834Z,1016.45
2017-08-07T13:12:37.793Z,1016.46
2017-08-07T13:13:46.764Z,1016.46
2017-08-07T13:14:55.728Z,1016.42
2017-08-07T13:16:04.704Z,1016.47
2017-08-07T13:17:13.668Z,1016.44
2017-08-07T13:18:22.624Z,1016.41
2017-08-07T13:19:31.608Z,1016.41
2017-08-07T13:20:40.905Z,1016.41
2017-08-07T13:21:49.866Z,1016.51
2017-08-07T13:22:58.827Z,1016.44
2017-08-07T13:24:07.795Z,1016.45
2017-08-07T13:25:16.760Z,1016.43
2017-08-07T13:26:25.732Z,1016.44
2017-08-07T13:27:34.694Z,1016.37
2017-08-07T13:28:43.660Z,1016.31
2017-08-07T13:29:52.631Z,1016.35
2017-08-07T13:31:02.247Z,1016.39
2017-08-07T13:32:11.204Z,1016.38
2017-08-07T13:33:20.158Z,1016.34
2017-08-07T13:34:29.121Z,1016.31
2017-08-07T13:35:38.083Z,1016.35
2017-08-07T13:36:47.044Z,1016.32
2017-08-07T13:37:56.001Z,1016.26
2017-08-07T13:39:04.958Z,1016.29
2017-08-07T13:40:13.921Z,1016.24
2017-08-07T13:41:22.880Z,1016.21
2017-08-07T13:42:32.168Z,1016.22
2017-08-07T13:43:41.131Z,1016.19
2017-08-07T13:44:50.096Z,1016.16
2017-08-07T13:45:59.060Z,1016.17
2017-08-07T13:47:08.026Z,1016.17
2017-08-07T13:48:16.987Z,1016.18
2017-08-07T13:49:25.953Z,1016.16
2017-08-07T13:50:34.921Z,1016.14
2017-08-07T13:51:43.879Z,1016.17
2017-08-07T13:52:52.832Z,1016.17
2017-08-07T13:54:01.799Z,1016.12
2017-08-07T13:55:10.769Z,1016.11
2017-08-07T13:56:19.729Z,1016.14